createdAt,value
2022-11-18T00:04:42.847Z,99680.81
2022-11-18T00:09:45.062Z,99652.81
2022-11-18T00:14:47.616Z,99689.22
2022-11-18T00:19:49.805Z,99663.94
2022-11-18T00:24:51.995Z,99670.06
2022-11-18T00:29:54.346Z,99657.97
2022-11-18T00:34:56.718Z,99649.47
2022-11-18T00:39:59.084Z,99663.91
2022-11-18T00:45:01.296Z,99681.22
2022-11-18T00:50:03.862Z,99609.56
2022-11-18T00:55:06.540Z,99676.16
2022-11-18T01:00:12.152Z,99681.81
2022-11-18T01:05:14.412Z,99643.38
2022-11-18T01:10:17.634Z,99618.28
2022-11-18T01:15:19.959Z,99640.16
2022-11-18T01:20:22.223Z,99611.91
2022-11-18T01:25:24.498Z,99646.59
2022-11-18T01:30:26.852Z,99606.19
2022-11-18T01:35:29.235Z,99633.03
2022-11-18T01:40:32.316Z,99623.59
2022-11-18T01:45:38.739Z,99628.78
2022-11-18T01:50:48.048Z,99664.38
2022-11-18T01:55:53.046Z,99668.84
2022-11-18T02:00:55.928Z,99670.50
2022-11-18T02:06:00.371Z,99665.94
2022-11-18T02:11:02.612Z,99641.94
2022-11-18T02:16:14.170Z,99657.41
2022-11-18T02:21:29.135Z,99648.13
2022-11-18T02:26:37.440Z,99636.13
2022-11-18T02:31:47.487Z,99607.94
2022-11-18T02:37:00.064Z,99663.19
2022-11-18T02:42:07.220Z,99633.66
2022-11-18T02:47:14.000Z,99651.69
2022-11-18T02:52:18.194Z,99645.88
2022-11-18T02:57:22.594Z,99647.13
2022-11-18T03:02:24.914Z,99628.16
2022-11-18T03:07:32.504Z,99659.47
2022-11-18T03:12:45.478Z,99661.75
2022-11-18T03:17:57.447Z,99652.63
2022-11-18T03:23:17.573Z,99649.91
2022-11-18T03:28:25.757Z,99646.78
2022-11-18T03:33:35.618Z,99634.72
2022-11-18T03:38:40.367Z,99653.28
2022-11-18T03:43:50.226Z,99653.50
2022-11-18T03:48:53.679Z,99656.28
2022-11-18T03:54:09.841Z,99666.75
2022-11-18T03:59:24.438Z,99676.16
2022-11-18T04:04:29.146Z,99673.28
2022-11-18T04:09:42.324Z,99661.59
2022-11-18T04:14:48.504Z,99605.59
2022-11-18T04:19:50.911Z,99649.50
2022-11-18T04:24:53.152Z,99684.16
2022-11-18T04:29:55.503Z,99670.75
2022-11-18T04:34:57.823Z,99658.84
2022-11-18T04:40:00.165Z,99650.88
2022-11-18T04:45:02.668Z,99696.06
2022-11-18T04:50:05.591Z,99645.91
2022-11-18T04:55:08.161Z,99641.84
2022-11-18T05:00:10.875Z,99676.38
2022-11-18T05:05:13.134Z,99693.00
2022-11-18T05:10:16.014Z,99688.94
2022-11-18T05:15:24.443Z,99667.53
2022-11-18T05:20:26.688Z,99678.44
2022-11-18T05:25:29.116Z,99662.38
2022-11-18T05:30:31.347Z,99648.41
2022-11-18T05:35:33.733Z,99673.56
2022-11-18T05:40:36.104Z,99681.00
2022-11-18T05:45:40.999Z,99609.50
2022-11-18T05:50:43.251Z,99698.97
2022-11-18T05:56:04.488Z,99663.53
2022-11-18T06:01:08.979Z,99680.84
2022-11-18T06:06:14.268Z,99690.09
2022-11-18T06:11:20.461Z,99646.56
2022-11-18T06:16:28.151Z,99670.88
2022-11-18T06:21:31.155Z,99694.31
2022-11-18T06:26:33.479Z,99632.25
2022-11-18T06:31:35.810Z,99682.75
2022-11-18T06:36:38.283Z,99708.69
2022-11-18T06:41:40.801Z,99685.16
2022-11-18T06:46:58.011Z,99682.88
2022-11-18T06:52:00.269Z,99725.09
2022-11-18T06:57:02.608Z,99707.72
2022-11-18T07:02:04.842Z,99702.88
2022-11-18T07:07:08.494Z,99703.44
2022-11-18T07:12:10.967Z,99705.31
2022-11-18T07:17:13.246Z,99684.78
2022-11-18T07:22:15.465Z,99717.25
2022-11-18T07:27:17.951Z,99721.91
2022-11-18T07:32:20.388Z,99703.19
2022-11-18T07:37:22.638Z,99687.44
2022-11-18T07:42:24.992Z,99708.59
2022-11-18T07:47:27.306Z,99677.13
2022-11-18T07:52:29.779Z,99685.25
2022-11-18T07:57:32.323Z,99690.94
2022-11-18T08:02:34.759Z,99673.47
2022-11-18T08:07:37.022Z,99701.34
2022-11-18T08:12:39.335Z,99719.75
2022-11-18T08:17:41.579Z,99667.41
2022-11-18T08:22:43.767Z,99716.84
2022-11-18T08:27:45.985Z,99718.81
2022-11-18T08:32:48.207Z,99696.69
2022-11-18T08:37:50.443Z,99698.81
2022-11-18T08:42:53.102Z,99703.56
2022-11-18T08:47:55.433Z,99712.22
2022-11-18T08:52:57.821Z,99695.25
2022-11-18T08:57:59.995Z,99695.78
2022-11-18T09:03:02.394Z,99689.88
2022-11-18T09:08:05.601Z,99692.50
2022-11-18T09:13:40.053Z,99688.44
2022-11-18T09:18:30.958Z,99629.88
2022-11-18T09:23:35.278Z,99670.44
2022-11-18T09:28:37.769Z,99664.75
2022-11-18T09:33:40.524Z,99671.31
2022-11-18T09:38:43.094Z,99644.00
2022-11-18T09:44:21.992Z,99631.81
2022-11-18T09:49:34.790Z,99633.75
2022-11-18T09:54:38.444Z,99641.25
2022-11-18T09:59:41.326Z,99641.09
2022-11-18T10:04:43.731Z,99623.22
2022-11-18T10:09:48.940Z,99611.66
2022-11-18T10:15:04.435Z,99599.75
2022-11-18T10:20:28.105Z,99601.13
2022-11-18T10:25:30.508Z,99570.47
2022-11-18T10:30:32.765Z,99565.41
2022-11-18T10:35:39.808Z,99564.09
2022-11-18T10:41:03.716Z,99561.97
2022-11-18T10:46:20.119Z,99566.09
2022-11-18T10:51:25.241Z,99560.94
2022-11-18T10:56:28.923Z,99526.13
2022-11-18T11:01:31.562Z,99522.19
2022-11-18T11:06:38.687Z,99530.91
2022-11-18T11:11:58.434Z,99520.03
2022-11-18T11:17:06.801Z,99519.44
2022-11-18T11:22:11.650Z,99519.16
2022-11-18T11:32:56.781Z,99499.03
2022-11-18T11:38:01.928Z,99458.78
2022-11-18T11:43:16.099Z,99508.28
2022-11-18T11:48:56.866Z,99504.75
2022-11-18T11:54:07.992Z,99488.97
2022-11-18T11:59:29.181Z,99488.66
2022-11-18T12:04:53.876Z,99481.00
2022-11-18T12:10:21.408Z,99469.69
2022-11-18T12:16:02.397Z,99483.31
2022-11-18T12:21:04.799Z,99442.38
2022-11-18T12:26:10.333Z,99482.09
2022-11-18T12:31:18.678Z,99483.72
2022-11-18T12:36:40.647Z,99457.63
2022-11-18T12:42:11.030Z,99470.34
2022-11-18T12:47:34.658Z,99451.69
2022-11-18T12:52:37.015Z,99461.38
2022-11-18T12:57:44.300Z,99451.84
2022-11-18T13:02:54.246Z,99444.47
2022-11-18T13:08:13.753Z,99454.56
2022-11-18T13:13:35.039Z,99432.50
2022-11-18T13:18:56.823Z,99454.75
2022-11-18T13:24:02.413Z,99438.78
2022-11-18T13:29:42.853Z,99449.22
2022-11-18T13:34:49.351Z,99444.75
2022-11-18T13:39:52.267Z,99455.97
2022-11-18T13:44:59.759Z,99448.88
2022-11-18T13:50:32.815Z,99451.44
2022-11-18T13:55:45.909Z,99412.34
2022-11-18T14:01:04.673Z,99430.56
2022-11-18T14:06:07.044Z,99384.63
2022-11-18T14:11:10.790Z,99427.06
2022-11-18T14:16:21.990Z,99420.56
2022-11-18T14:21:36.566Z,99393.91
2022-11-18T14:26:39.393Z,99366.78
2022-11-18T14:31:43.285Z,99353.78
2022-11-18T14:36:46.550Z,99431.00
2022-11-18T14:41:49.108Z,99366.28
2022-11-18T14:46:56.326Z,99430.47
2022-11-18T14:52:02.927Z,99423.69
2022-11-18T14:57:06.295Z,99433.47
2022-11-18T15:02:18.688Z,99430.44
2022-11-18T15:07:23.822Z,99421.19
2022-11-18T15:12:26.406Z,99407.31
2022-11-18T15:17:28.906Z,99418.19
2022-11-18T15:22:31.349Z,99419.22
2022-11-18T15:27:33.651Z,99440.97
2022-11-18T15:32:35.904Z,99424.34
2022-11-18T15:37:38.357Z,99411.81
2022-11-18T15:42:48.972Z,99432.47
2022-11-18T15:47:53.880Z,99437.38
2022-11-18T15:52:56.266Z,99455.81
2022-11-18T15:57:58.495Z,99434.75
2022-11-18T16:03:03.988Z,99443.66
2022-11-18T16:08:06.273Z,99432.75
2022-11-18T16:13:08.506Z,99459.34
2022-11-18T16:18:11.928Z,99434.63
2022-11-18T16:23:14.341Z,99419.59
2022-11-18T16:28:16.620Z,99417.97
2022-11-18T16:33:18.901Z,99400.81
2022-11-18T16:38:21.270Z,99450.47
2022-11-18T16:43:24.505Z,99464.06
2022-11-18T16:48:26.820Z,99419.63
2022-11-18T16:53:29.154Z,99452.34
2022-11-18T16:58:31.395Z,99434.97
2022-11-18T17:03:33.585Z,99456.47
2022-11-18T17:08:38.788Z,99463.06
2022-11-18T17:13:42.436Z,99473.16
2022-11-18T17:18:45.479Z,99488.75
2022-11-18T17:23:49.111Z,99488.22
2022-11-18T17:28:51.927Z,99471.06
2022-11-18T17:33:56.003Z,99428.56
2022-11-18T17:39:01.145Z,99460.25
2022-11-18T17:44:06.231Z,99450.66
2022-11-18T17:49:16.568Z,99470.75
2022-11-18T17:54:19.578Z,99467.47
2022-11-18T17:59:23.386Z,99443.03
2022-11-18T18:04:25.600Z,99443.44
2022-11-18T18:09:31.132Z,99477.34
2022-11-18T18:14:33.729Z,99444.09
2022-11-18T18:19:35.931Z,99439.44
2022-11-18T18:24:38.246Z,99455.94
2022-11-18T18:29:40.661Z,99433.19
2022-11-18T18:34:42.872Z,99460.66
2022-11-18T18:39:45.223Z,99476.28
2022-11-18T18:45:05.945Z,99470.66
2022-11-18T18:50:08.729Z,99487.03
2022-11-18T18:55:11.087Z,99492.53
2022-11-18T19:00:14.039Z,99500.91
2022-11-18T19:05:16.452Z,99482.13
2022-11-18T19:10:18.712Z,99459.97
2022-11-18T19:15:21.191Z,99487.16
2022-11-18T19:20:36.916Z,99457.75
2022-11-18T19:25:39.469Z,99500.91
2022-11-18T19:30:41.765Z,99511.81
2022-11-18T19:35:44.036Z,99498.34
2022-11-18T19:40:46.320Z,99529.84
2022-11-18T19:45:52.564Z,99492.75
2022-11-18T19:51:15.871Z,99517.25
2022-11-18T19:56:20.283Z,99532.09
2022-11-18T20:01:26.114Z,99528.00
2022-11-18T20:06:28.552Z,99540.06
2022-11-18T20:11:30.774Z,99515.44
2022-11-18T20:16:34.088Z,99531.56
2022-11-18T20:21:36.363Z,99527.59
2022-11-18T20:26:39.429Z,99573.06
2022-11-18T20:31:41.837Z,99513.75
2022-11-18T20:36:44.280Z,99551.22
2022-11-18T20:42:05.117Z,99556.22
2022-11-18T20:47:07.403Z,99585.06
2022-11-18T20:52:09.665Z,99575.66
2022-11-18T20:57:12.109Z,99555.69
2022-11-18T21:02:14.380Z,99581.38
2022-11-18T21:07:16.638Z,99557.66
2022-11-18T21:12:18.891Z,99564.47
2022-11-18T21:17:21.117Z,99557.44
2022-11-18T21:22:23.443Z,99595.66
2022-11-18T21:27:25.843Z,99572.78
2022-11-18T21:32:28.089Z,99611.97
2022-11-18T21:37:32.925Z,99591.72
2022-11-18T21:42:35.132Z,99604.59
2022-11-18T21:47:37.406Z,99563.66
2022-11-18T21:52:39.796Z,99601.41
2022-11-18T21:57:42.929Z,99626.06
2022-11-18T22:02:45.286Z,99619.50
2022-11-18T22:07:47.645Z,99591.81
2022-11-18T22:12:51.886Z,99647.31
2022-11-18T22:17:54.162Z,99657.31
2022-11-18T22:22:56.383Z,99647.31
2022-11-18T22:27:58.711Z,99631.50
2022-11-18T22:33:00.946Z,99642.00
2022-11-18T22:38:03.345Z,99648.94
2022-11-18T22:43:05.847Z,99601.63
2022-11-18T22:48:08.216Z,99589.25
2022-11-18T22:53:10.415Z,99590.03
2022-11-18T22:58:12.603Z,99622.81
2022-11-18T23:03:14.825Z,99653.94
2022-11-18T23:08:17.244Z,99654.97
2022-11-18T23:13:38.552Z,99664.47
2022-11-18T23:18:41.277Z,99669.16
2022-11-18T23:23:44.934Z,99674.16
2022-11-18T23:28:47.308Z,99667.69
2022-11-18T23:33:50.025Z,99679.78
2022-11-18T23:38:53.936Z,99690.47
2022-11-18T23:43:56.173Z,99612.13
2022-11-18T23:48:58.889Z,99672.75
2022-11-18T23:54:01.164Z,99685.16
2022-11-18T23:59:03.942Z,99692.66
